createdAt,value
2018-11-25T00:00:51.110Z,4.34
2018-11-25T00:01:51.029Z,4.38
2018-11-25T00:02:50.950Z,4.34
2018-11-25T00:03:50.875Z,4.40
2018-11-25T00:04:50.781Z,4.32
2018-11-25T00:05:50.707Z,4.28
2018-11-25T00:06:50.628Z,4.34
2018-11-25T00:07:50.532Z,4.37
2018-11-25T00:08:50.458Z,4.41
2018-11-25T00:09:50.380Z,4.34
2018-11-25T00:10:50.289Z,4.38
2018-11-25T00:11:50.211Z,4.32
2018-11-25T00:12:50.128Z,4.37
2018-11-25T00:13:50.049Z,4.36
2018-11-25T00:14:49.959Z,4.37
2018-11-25T00:15:49.880Z,4.43
2018-11-25T00:16:49.804Z,4.43
2018-11-25T00:17:49.726Z,4.37
2018-11-25T00:18:49.638Z,4.34
2018-11-25T00:19:49.549Z,4.36
2018-11-25T00:20:49.474Z,4.43
2018-11-25T00:21:49.399Z,4.38
2018-11-25T00:22:49.306Z,4.40
2018-11-25T00:23:49.233Z,4.36
2018-11-25T00:24:49.144Z,4.38
2018-11-25T00:25:49.057Z,4.38
2018-11-25T00:26:48.986Z,4.37
2018-11-25T00:27:48.910Z,4.43
2018-11-25T00:28:48.810Z,4.38
2018-11-25T00:29:48.740Z,4.47
2018-11-25T00:30:48.657Z,4.44
2018-11-25T00:31:48.569Z,4.43
2018-11-25T00:32:48.494Z,4.48
2018-11-25T00:33:48.399Z,4.47
2018-11-25T00:34:48.328Z,4.48
2018-11-25T00:35:48.237Z,4.41
2018-11-25T00:36:48.158Z,4.46
2018-11-25T00:37:48.911Z,4.50
2018-11-25T00:38:48.003Z,4.41
2018-11-25T00:39:47.919Z,4.50
2018-11-25T00:40:47.828Z,4.47
2018-11-25T00:41:47.760Z,4.48
2018-11-25T00:42:47.673Z,4.50
2018-11-25T00:43:47.584Z,4.50
2018-11-25T00:44:47.517Z,4.52
2018-11-25T00:45:47.426Z,4.54
2018-11-25T00:46:47.340Z,4.50
2018-11-25T00:47:47.272Z,4.52
2018-11-25T00:48:47.183Z,4.54
2018-11-25T00:49:47.093Z,4.55
2018-11-25T00:50:47.016Z,4.50
2018-11-25T00:51:46.937Z,4.58
2018-11-25T00:52:46.847Z,4.52
2018-11-25T00:53:46.778Z,4.48
2018-11-25T00:54:46.691Z,4.47
2018-11-25T00:55:46.601Z,4.47
2018-11-25T00:56:46.540Z,4.41
2018-11-25T00:57:47.450Z,4.41
2018-11-25T00:58:46.356Z,4.50
2018-11-25T00:59:46.290Z,4.47
2018-11-25T01:00:46.200Z,4.52
2018-11-25T01:01:46.113Z,4.50
2018-11-25T01:02:46.043Z,4.54
2018-11-25T01:03:45.954Z,4.59
2018-11-25T01:04:45.865Z,4.55
2018-11-25T01:05:45.793Z,4.56
2018-11-25T01:06:45.718Z,4.52
2018-11-25T01:07:45.619Z,4.55
2018-11-25T01:08:45.541Z,4.56
2018-11-25T01:09:45.463Z,4.59
2018-11-25T01:10:45.377Z,4.56
2018-11-25T01:11:45.297Z,4.55
2018-11-25T01:12:45.217Z,4.58
2018-11-25T01:13:45.131Z,4.56
2018-11-25T01:14:45.057Z,4.58
2018-11-25T01:15:44.972Z,4.44
2018-11-25T01:16:44.885Z,4.48
2018-11-25T01:17:44.808Z,4.55
2018-11-25T01:18:44.724Z,4.64
2018-11-25T01:19:44.641Z,4.54
2018-11-25T01:20:44.565Z,4.50
2018-11-25T01:21:44.479Z,4.59
2018-11-25T01:22:44.404Z,4.56
2018-11-25T01:23:44.321Z,4.59
2018-11-25T01:24:44.236Z,4.55
2018-11-25T01:25:44.148Z,4.50
2018-11-25T01:26:44.073Z,4.56
2018-11-25T01:27:43.991Z,4.54
2018-11-25T01:28:43.904Z,4.55
2018-11-25T01:29:43.830Z,4.38
2018-11-25T01:30:43.748Z,4.46
2018-11-25T01:31:43.658Z,4.50
2018-11-25T01:32:43.607Z,4.46
2018-11-25T01:33:43.499Z,4.55
2018-11-25T01:34:43.413Z,4.48
2018-11-25T01:35:43.334Z,4.44
2018-11-25T01:36:43.258Z,4.48
2018-11-25T01:37:43.160Z,4.52
2018-11-25T01:38:43.092Z,4.44
2018-11-25T01:39:43.011Z,4.46
2018-11-25T01:40:42.929Z,4.41
2018-11-25T01:41:42.856Z,4.50
2018-11-25T01:42:42.761Z,4.43
2018-11-25T01:43:42.683Z,4.47
2018-11-25T01:44:42.593Z,4.34
2018-11-25T01:45:42.512Z,4.37
2018-11-25T01:46:42.429Z,4.38
2018-11-25T01:47:42.359Z,4.37
2018-11-25T01:48:42.271Z,4.37
2018-11-25T01:49:42.198Z,4.28
2018-11-25T01:50:42.105Z,4.30
2018-11-25T01:51:42.022Z,4.28
2018-11-25T01:52:41.940Z,4.25
2018-11-25T01:53:41.873Z,4.22
2018-11-25T01:54:41.777Z,4.16
2018-11-25T01:55:41.700Z,4.20
2018-11-25T01:56:41.613Z,4.19
2018-11-25T01:57:41.530Z,4.12
2018-11-25T01:58:41.449Z,4.05
2018-11-25T01:59:41.378Z,4.04
2018-11-25T02:00:41.285Z,4.01
2018-11-25T02:01:41.227Z,4.01
2018-11-25T02:02:41.121Z,4.07
2018-11-25T02:03:41.036Z,4.16
2018-11-25T02:04:40.960Z,4.15
2018-11-25T02:05:40.897Z,4.12
2018-11-25T02:06:40.796Z,4.08
2018-11-25T02:07:40.720Z,4.10
2018-11-25T02:08:40.630Z,4.12
2018-11-25T02:09:40.550Z,4.12
2018-11-25T02:10:40.473Z,4.11
2018-11-25T02:11:40.397Z,4.23
2018-11-25T02:12:40.303Z,4.20
2018-11-25T02:13:40.232Z,4.16
2018-11-25T02:14:40.139Z,4.20
2018-11-25T02:15:40.058Z,4.15
2018-11-25T02:16:39.989Z,4.11
2018-11-25T02:17:39.904Z,4.19
2018-11-25T02:18:39.814Z,4.18
2018-11-25T02:19:39.742Z,4.16
2018-11-25T02:20:39.648Z,4.10
2018-11-25T02:21:39.567Z,4.11
2018-11-25T02:22:39.488Z,4.10
2018-11-25T02:23:39.416Z,4.12
2018-11-25T02:24:39.321Z,4.05
2018-11-25T02:25:39.251Z,4.00
2018-11-25T02:26:39.157Z,4.00
2018-11-25T02:27:39.079Z,4.07
2018-11-25T02:28:39.000Z,4.01
2018-11-25T02:29:38.918Z,4.08
2018-11-25T02:30:38.830Z,4.00
2018-11-25T02:31:38.751Z,3.97
2018-11-25T02:32:38.669Z,3.84
2018-11-25T02:33:38.596Z,3.97
2018-11-25T02:34:38.502Z,3.97
2018-11-25T02:35:38.429Z,3.92
2018-11-25T02:36:38.337Z,3.84
2018-11-25T02:37:38.261Z,3.93
2018-11-25T02:38:38.174Z,3.84
2018-11-25T02:39:38.101Z,3.82
2018-11-25T02:40:38.011Z,3.84
2018-11-25T02:41:37.941Z,3.83
2018-11-25T02:42:37.847Z,3.79
2018-11-25T02:43:37.772Z,3.72
2018-11-25T02:44:37.692Z,3.75
2018-11-25T02:45:37.609Z,3.72
2018-11-25T02:46:37.518Z,3.77
2018-11-25T02:47:37.453Z,3.71
2018-11-25T02:48:37.356Z,3.72
2018-11-25T02:49:37.280Z,3.74
2018-11-25T02:50:37.190Z,3.75
2018-11-25T02:51:37.117Z,3.74
2018-11-25T02:52:37.020Z,3.62
2018-11-25T02:53:36.952Z,3.69
2018-11-25T02:54:36.859Z,3.66
2018-11-25T02:55:36.792Z,3.65
2018-11-25T02:56:36.700Z,3.66
2018-11-25T02:57:36.623Z,3.69
2018-11-25T02:58:36.538Z,3.64
2018-11-25T02:59:36.467Z,3.68
2018-11-25T03:00:36.376Z,3.80
2018-11-25T03:01:36.295Z,3.72
2018-11-25T03:02:36.216Z,3.71
2018-11-25T03:03:36.135Z,3.79
2018-11-25T03:04:36.045Z,3.75
2018-11-25T03:05:35.968Z,3.62
2018-11-25T03:06:35.890Z,3.75
2018-11-25T03:07:35.805Z,3.71
2018-11-25T03:08:35.711Z,3.79
2018-11-25T03:09:35.637Z,3.75
2018-11-25T03:10:35.555Z,3.74
2018-11-25T03:11:35.476Z,3.72
2018-11-25T03:12:35.384Z,3.71
2018-11-25T03:13:35.312Z,3.68
2018-11-25T03:14:35.223Z,3.68
2018-11-25T03:15:35.145Z,3.64
2018-11-25T03:16:35.062Z,3.65
2018-11-25T03:17:34.986Z,3.50
2018-11-25T03:18:34.892Z,3.53
2018-11-25T03:19:34.828Z,3.54
2018-11-25T03:20:34.732Z,3.46
2018-11-25T03:21:34.654Z,3.44
2018-11-25T03:22:34.564Z,3.39
2018-11-25T03:23:34.498Z,3.35
2018-11-25T03:24:34.405Z,3.34
2018-11-25T03:25:34.320Z,3.34
2018-11-25T03:26:34.249Z,3.27
2018-11-25T03:27:34.156Z,3.14
2018-11-25T03:28:34.073Z,3.11
2018-11-25T03:29:33.999Z,3.13
2018-11-25T03:30:33.910Z,3.10
2018-11-25T03:31:33.828Z,3.16
2018-11-25T03:32:33.757Z,3.16
2018-11-25T03:33:33.663Z,3.17
2018-11-25T03:34:33.582Z,3.13
2018-11-25T03:35:33.510Z,3.17
2018-11-25T03:36:33.422Z,3.16
2018-11-25T03:37:33.335Z,3.21
2018-11-25T03:38:33.263Z,3.10
2018-11-25T03:39:33.175Z,3.07
2018-11-25T03:40:33.094Z,3.07
2018-11-25T03:41:33.014Z,2.98
2018-11-25T03:42:32.925Z,3.04
2018-11-25T03:43:32.849Z,2.96
2018-11-25T03:44:32.770Z,3.01
2018-11-25T03:45:32.678Z,2.93
2018-11-25T03:46:32.597Z,3.03
2018-11-25T03:47:32.523Z,3.03
2018-11-25T03:48:32.438Z,3.01
2018-11-25T03:49:32.344Z,2.99
2018-11-25T03:50:32.274Z,3.01
2018-11-25T03:51:32.183Z,3.03
2018-11-25T03:52:32.103Z,2.99
2018-11-25T03:53:32.027Z,3.03
2018-11-25T03:54:31.936Z,3.03
2018-11-25T03:55:31.858Z,3.07
2018-11-25T03:56:31.783Z,3.01
2018-11-25T03:57:31.694Z,3.06
2018-11-25T03:58:31.611Z,3.17
2018-11-25T03:59:31.535Z,3.06
2018-11-25T04:00:31.446Z,3.09
2018-11-25T04:01:31.366Z,3.04
2018-11-25T04:02:31.289Z,3.04
2018-11-25T04:03:31.195Z,3.03
2018-11-25T04:04:31.117Z,3.06
2018-11-25T04:05:31.043Z,3.07
2018-11-25T04:06:30.950Z,3.03
2018-11-25T04:07:30.868Z,3.04
2018-11-25T04:08:30.795Z,2.96
2018-11-25T04:09:30.705Z,3.01
2018-11-25T04:10:30.628Z,3.09
2018-11-25T04:11:30.545Z,2.99
2018-11-25T04:12:30.460Z,3.06
2018-11-25T04:13:30.379Z,2.99
2018-11-25T04:14:30.305Z,2.99
2018-11-25T04:15:30.210Z,3.04
2018-11-25T04:16:30.127Z,3.03
2018-11-25T04:17:30.056Z,3.01
2018-11-25T04:18:29.964Z,2.96
2018-11-25T04:19:29.879Z,2.98
2018-11-25T04:20:29.812Z,2.93
2018-11-25T04:21:29.718Z,2.95
2018-11-25T04:22:29.634Z,2.98
2018-11-25T04:23:29.551Z,2.98
2018-11-25T04:24:29.478Z,2.99
2018-11-25T04:25:29.388Z,3.03
2018-11-25T04:26:29.308Z,2.99
2018-11-25T04:27:29.793Z,2.96
2018-11-25T04:28:29.137Z,2.98
2018-11-25T04:29:29.063Z,2.92
2018-11-25T04:30:28.980Z,2.92
2018-11-25T04:31:28.900Z,2.98
2018-11-25T04:32:28.816Z,3.01
2018-11-25T04:33:28.725Z,2.98
2018-11-25T04:34:28.646Z,2.95
2018-11-25T04:35:28.566Z,2.95
2018-11-25T04:36:28.529Z,2.92
2018-11-25T04:37:28.397Z,2.81
2018-11-25T04:38:28.330Z,2.88
2018-11-25T04:39:28.230Z,2.96
2018-11-25T04:40:28.145Z,2.95
2018-11-25T04:41:28.073Z,2.98
2018-11-25T04:42:27.985Z,2.92
2018-11-25T04:43:27.899Z,2.93
2018-11-25T04:44:27.816Z,2.96
2018-11-25T04:45:27.748Z,2.91
2018-11-25T04:46:27.652Z,2.81
2018-11-25T04:47:27.575Z,2.88
2018-11-25T04:48:27.488Z,2.93
2018-11-25T04:49:27.406Z,2.89
2018-11-25T04:50:27.323Z,2.98
2018-11-25T04:51:27.249Z,2.89
2018-11-25T04:52:27.159Z,2.88
2018-11-25T04:53:27.083Z,2.89
2018-11-25T04:54:26.993Z,2.86
2018-11-25T04:55:26.909Z,2.81
2018-11-25T04:56:26.840Z,2.81
2018-11-25T04:57:26.752Z,2.80
2018-11-25T04:58:26.664Z,2.81
2018-11-25T04:59:26.588Z,2.84
2018-11-25T05:00:26.499Z,2.77
2018-11-25T05:01:26.417Z,2.80
2018-11-25T05:02:26.339Z,2.80
2018-11-25T05:03:26.251Z,2.75
2018-11-25T05:04:26.167Z,2.84
2018-11-25T05:05:26.088Z,2.84
2018-11-25T05:06:26.009Z,2.88
2018-11-25T05:07:25.920Z,2.81
2018-11-25T05:08:25.844Z,2.98
2018-11-25T05:09:25.754Z,2.88
2018-11-25T05:10:25.672Z,2.84
2018-11-25T05:11:25.587Z,2.88
2018-11-25T05:12:25.514Z,2.88
2018-11-25T05:13:25.427Z,2.85
2018-11-25T05:14:25.352Z,2.89
2018-11-25T05:15:25.257Z,2.91
2018-11-25T05:16:25.185Z,2.89
2018-11-25T05:17:25.095Z,2.92
2018-11-25T05:18:25.046Z,3.06
2018-11-25T05:19:24.929Z,3.01
2018-11-25T05:20:24.858Z,3.01
2018-11-25T05:21:24.765Z,2.93
2018-11-25T05:22:24.685Z,2.92
2018-11-25T05:23:24.603Z,2.96
2018-11-25T05:24:24.528Z,2.93
2018-11-25T05:25:24.437Z,2.86
2018-11-25T05:26:24.360Z,2.85
2018-11-25T05:27:24.273Z,2.93
2018-11-25T05:28:24.195Z,2.93
2018-11-25T05:29:24.115Z,2.93
2018-11-25T05:30:24.022Z,2.96
2018-11-25T05:31:23.941Z,2.95
2018-11-25T05:32:23.866Z,2.95
2018-11-25T05:33:23.776Z,3.03
2018-11-25T05:34:23.694Z,2.96
2018-11-25T05:35:23.618Z,3.01
2018-11-25T05:36:23.536Z,3.03
2018-11-25T05:37:23.447Z,3.04
2018-11-25T05:38:23.370Z,3.03
2018-11-25T05:39:23.279Z,2.99
2018-11-25T05:40:23.201Z,2.98
2018-11-25T05:41:23.125Z,2.98
2018-11-25T05:42:23.035Z,2.85
2018-11-25T05:43:22.953Z,2.88
2018-11-25T05:44:22.877Z,2.81
2018-11-25T05:45:22.784Z,2.91
2018-11-25T05:46:22.711Z,2.92
2018-11-25T05:47:22.626Z,2.88
2018-11-25T05:48:22.538Z,2.96
2018-11-25T05:49:22.453Z,2.93
2018-11-25T05:50:22.386Z,3.03
2018-11-25T05:51:22.288Z,3.01
2018-11-25T05:52:22.218Z,2.98
2018-11-25T05:53:22.124Z,2.93
2018-11-25T05:54:22.051Z,2.95
2018-11-25T05:55:21.963Z,2.93
2018-11-25T05:56:21.883Z,2.93
2018-11-25T05:57:21.794Z,2.99
2018-11-25T05:58:21.714Z,2.93
2018-11-25T05:59:21.629Z,2.98
2018-11-25T06:00:21.560Z,2.98
2018-11-25T06:01:21.462Z,2.98
2018-11-25T06:02:21.392Z,2.84
2018-11-25T06:03:21.298Z,3.01
2018-11-25T06:04:21.216Z,2.95
2018-11-25T06:05:21.139Z,2.96
2018-11-25T06:06:21.050Z,2.85
2018-11-25T06:07:20.967Z,2.92
2018-11-25T06:08:20.893Z,2.86
2018-11-25T06:09:20.806Z,2.88
2018-11-25T06:10:20.719Z,2.84
2018-11-25T06:11:20.637Z,2.84
2018-11-25T06:12:20.562Z,2.77
2018-11-25T06:13:20.479Z,2.88
2018-11-25T06:14:20.389Z,2.81
2018-11-25T06:15:20.318Z,2.77
2018-11-25T06:16:20.231Z,2.84
2018-11-25T06:17:20.142Z,2.86
2018-11-25T06:18:20.066Z,2.80
2018-11-25T06:19:19.983Z,2.81
2018-11-25T06:20:19.895Z,2.84
2018-11-25T06:21:19.818Z,2.68
2018-11-25T06:22:19.740Z,2.70
2018-11-25T06:23:19.648Z,2.74
2018-11-25T06:24:19.572Z,2.70
2018-11-25T06:25:19.491Z,2.71
2018-11-25T06:26:19.400Z,2.68
2018-11-25T06:27:19.325Z,2.52
2018-11-25T06:28:19.241Z,2.70
2018-11-25T06:29:19.150Z,2.56
2018-11-25T06:30:19.166Z,2.68
2018-11-25T06:31:18.985Z,2.66
2018-11-25T06:32:18.913Z,2.63
2018-11-25T06:33:18.831Z,2.75
2018-11-25T06:34:18.747Z,2.70
2018-11-25T06:35:18.653Z,2.62
2018-11-25T06:36:18.578Z,2.63
2018-11-25T06:37:18.489Z,2.63
2018-11-25T06:38:18.416Z,2.56
2018-11-25T06:39:18.323Z,2.63
2018-11-25T06:40:18.240Z,2.56
2018-11-25T06:41:18.160Z,2.66
2018-11-25T06:42:18.123Z,2.60
2018-11-25T06:43:18.026Z,2.62
2018-11-25T06:44:17.909Z,2.67
2018-11-25T06:45:17.935Z,2.70
2018-11-25T06:46:17.843Z,2.73
2018-11-25T06:47:17.660Z,2.73
2018-11-25T06:48:17.655Z,2.67
2018-11-25T06:49:17.555Z,2.73
2018-11-25T06:50:17.414Z,2.70
2018-11-25T06:51:17.360Z,2.68
2018-11-25T06:52:17.263Z,2.59
2018-11-25T06:53:17.161Z,2.50
2018-11-25T06:54:17.175Z,2.60
2018-11-25T06:55:17.001Z,2.62
2018-11-25T06:56:16.985Z,2.63
2018-11-25T06:57:16.830Z,2.68
2018-11-25T06:58:16.748Z,2.70
2018-11-25T06:59:16.664Z,2.73
2018-11-25T07:00:16.606Z,2.60
2018-11-25T07:01:16.606Z,2.67
2018-11-25T07:02:16.420Z,2.67
2018-11-25T07:03:16.416Z,2.71
2018-11-25T07:04:16.320Z,2.60
2018-11-25T07:05:16.174Z,2.73
2018-11-25T07:06:16.129Z,2.81
2018-11-25T07:07:16.036Z,2.74
2018-11-25T07:08:15.918Z,2.67
2018-11-25T07:09:15.946Z,2.68
2018-11-25T07:10:15.849Z,2.74
2018-11-25T07:11:15.671Z,2.70
2018-11-25T07:12:15.659Z,2.84
2018-11-25T07:13:15.563Z,2.85
2018-11-25T07:14:15.424Z,2.78
2018-11-25T07:15:15.369Z,2.74
2018-11-25T07:16:15.375Z,2.77
2018-11-25T07:17:15.177Z,2.66
2018-11-25T07:18:15.184Z,2.66
2018-11-25T07:19:15.016Z,2.68
2018-11-25T07:20:14.954Z,2.77
2018-11-25T07:21:14.899Z,2.70
2018-11-25T07:22:14.805Z,2.73
2018-11-25T07:23:14.676Z,2.60
2018-11-25T07:24:14.716Z,2.78
2018-11-25T07:25:14.614Z,2.74
2018-11-25T07:26:14.432Z,2.73
2018-11-25T07:27:14.423Z,2.68
2018-11-25T07:28:18.563Z,2.80
2018-11-25T07:29:14.179Z,2.70
2018-11-25T07:30:14.138Z,2.74
2018-11-25T07:31:14.041Z,2.74
2018-11-25T07:32:13.935Z,2.81
2018-11-25T07:33:13.850Z,2.78
2018-11-25T07:34:13.893Z,2.80
2018-11-25T07:35:13.684Z,2.78
2018-11-25T07:36:14.689Z,2.80
2018-11-25T07:37:13.570Z,2.77
2018-11-25T07:38:13.437Z,2.84
2018-11-25T07:39:13.376Z,2.88
2018-11-25T07:40:13.379Z,2.81
2018-11-25T07:41:13.191Z,2.88
2018-11-25T07:42:13.196Z,2.88
2018-11-25T07:43:13.099Z,2.88
2018-11-25T07:44:12.940Z,2.96
2018-11-25T07:45:12.911Z,2.93
2018-11-25T07:46:12.809Z,2.95
2018-11-25T07:47:12.692Z,2.86
2018-11-25T07:48:12.719Z,2.91
2018-11-25T07:49:12.623Z,2.95
2018-11-25T07:50:12.445Z,2.84
2018-11-25T07:51:12.436Z,2.84
2018-11-25T07:52:13.362Z,2.91
2018-11-25T07:53:12.201Z,2.95
2018-11-25T07:54:14.195Z,3.01
2018-11-25T07:55:12.045Z,2.98
2018-11-25T07:56:11.987Z,2.96
2018-11-25T07:57:11.878Z,3.04
2018-11-25T07:58:11.867Z,3.07
2018-11-25T07:59:11.700Z,3.01
2018-11-25T08:00:11.676Z,3.03
2018-11-25T08:01:11.578Z,3.01
2018-11-25T08:02:11.457Z,3.04
2018-11-25T08:03:11.489Z,3.03
2018-11-25T08:04:11.291Z,2.96
2018-11-25T08:05:11.204Z,3.16
2018-11-25T08:06:11.195Z,3.13
2018-11-25T08:07:11.038Z,3.21
2018-11-25T08:08:11.005Z,3.11
2018-11-25T08:09:10.872Z,3.21
2018-11-25T08:10:10.789Z,3.17
2018-11-25T08:11:10.707Z,3.21
2018-11-25T08:12:10.728Z,3.16
2018-11-25T08:13:10.546Z,3.19
2018-11-25T08:14:10.535Z,3.28
2018-11-25T08:15:10.379Z,3.24
2018-11-25T08:16:10.291Z,3.32
2018-11-25T08:17:10.223Z,3.29
2018-11-25T08:18:11.055Z,3.32
2018-11-25T08:19:10.051Z,3.32
2018-11-25T08:20:10.065Z,3.43
2018-11-25T08:21:09.884Z,3.41
2018-11-25T08:22:09.816Z,3.43
2018-11-25T08:23:09.719Z,3.47
2018-11-25T08:24:09.635Z,3.48
2018-11-25T08:25:09.555Z,3.54
2018-11-25T08:26:09.489Z,3.48
2018-11-25T08:27:09.387Z,3.51
2018-11-25T08:28:09.308Z,3.47
2018-11-25T08:29:09.230Z,3.44
2018-11-25T08:30:09.140Z,3.39
2018-11-25T08:31:09.057Z,3.37
2018-11-25T08:32:08.977Z,3.43
2018-11-25T08:33:09.641Z,3.56
2018-11-25T08:34:08.810Z,3.50
2018-11-25T08:35:08.735Z,3.65
2018-11-25T08:36:08.645Z,3.59
2018-11-25T08:37:08.563Z,3.54
2018-11-25T08:38:08.480Z,3.59
2018-11-25T08:39:08.404Z,3.54
2018-11-25T08:40:08.319Z,3.65
2018-11-25T08:41:08.234Z,3.61
2018-11-25T08:42:08.158Z,3.75
2018-11-25T08:43:08.285Z,3.69
2018-11-25T08:44:07.995Z,3.74
2018-11-25T08:45:07.909Z,3.72
2018-11-25T08:46:07.822Z,3.64
2018-11-25T08:47:07.738Z,3.69
2018-11-25T08:48:07.671Z,3.65
2018-11-25T08:49:07.575Z,3.80
2018-11-25T08:50:07.501Z,3.62
2018-11-25T08:51:07.410Z,3.69
2018-11-25T08:52:07.354Z,3.71
2018-11-25T08:53:07.248Z,3.77
2018-11-25T08:54:07.170Z,3.77
2018-11-25T08:55:07.106Z,3.77
2018-11-25T08:56:07.006Z,3.74
2018-11-25T08:57:06.940Z,3.71
2018-11-25T08:58:06.847Z,3.69
2018-11-25T08:59:06.752Z,3.80
2018-11-25T09:00:06.679Z,3.83
2018-11-25T09:01:06.586Z,3.86
2018-11-25T09:02:06.513Z,3.87
2018-11-25T09:03:06.426Z,3.90
2018-11-25T09:04:06.349Z,3.90
2018-11-25T09:05:06.260Z,3.92
2018-11-25T09:06:06.189Z,3.90
2018-11-25T09:07:06.094Z,3.87
2018-11-25T09:08:06.016Z,3.87
2018-11-25T09:09:05.929Z,3.87
2018-11-25T09:10:05.853Z,3.84
2018-11-25T09:11:05.785Z,3.97
2018-11-25T09:12:05.687Z,4.00
2018-11-25T09:13:05.600Z,4.01
2018-11-25T09:14:05.529Z,4.02
2018-11-25T09:15:05.438Z,4.00
2018-11-25T09:16:06.366Z,4.05
2018-11-25T09:17:05.272Z,4.00
2018-11-25T09:18:05.203Z,4.01
2018-11-25T09:19:05.107Z,4.05
2018-11-25T09:20:05.031Z,4.11
2018-11-25T09:21:04.946Z,4.11
2018-11-25T09:22:04.869Z,4.15
2018-11-25T09:23:04.778Z,4.10
2018-11-25T09:24:04.705Z,4.16
2018-11-25T09:25:04.617Z,4.23
2018-11-25T09:26:04.542Z,4.25
2018-11-25T09:27:04.450Z,4.25
2018-11-25T09:28:04.376Z,4.25
2018-11-25T09:29:04.288Z,4.19
2018-11-25T09:30:04.214Z,4.22
2018-11-25T09:31:04.122Z,4.23
2018-11-25T09:32:04.057Z,4.26
2018-11-25T09:33:03.971Z,4.25
2018-11-25T09:34:03.886Z,4.22
2018-11-25T09:35:03.796Z,4.26
2018-11-25T09:36:03.741Z,4.30
2018-11-25T09:37:03.634Z,4.36
2018-11-25T09:38:03.575Z,4.29
2018-11-25T09:39:03.465Z,4.32
2018-11-25T09:40:03.391Z,4.34
2018-11-25T09:41:03.301Z,4.34
2018-11-25T09:42:03.231Z,4.36
2018-11-25T09:43:03.146Z,4.36
2018-11-25T09:44:03.055Z,4.43
2018-11-25T09:45:02.981Z,4.43
2018-11-25T09:46:02.893Z,4.52
2018-11-25T09:47:02.811Z,4.47
2018-11-25T09:48:02.734Z,4.52
2018-11-25T09:49:02.647Z,4.48
2018-11-25T09:50:02.571Z,4.52
2018-11-25T09:51:02.493Z,4.54
2018-11-25T09:52:02.419Z,4.59
2018-11-25T09:53:02.315Z,4.58
2018-11-25T09:54:02.245Z,4.61
2018-11-25T09:55:02.155Z,4.54
2018-11-25T09:56:02.072Z,4.62
2018-11-25T09:57:02.028Z,4.61
2018-11-25T09:58:01.913Z,4.61
2018-11-25T09:59:01.827Z,4.59
2018-11-25T10:00:02.757Z,4.65
2018-11-25T10:01:01.670Z,4.59
2018-11-25T10:02:01.584Z,4.65
2018-11-25T10:03:01.514Z,4.73
2018-11-25T10:04:01.419Z,4.74
2018-11-25T10:05:01.339Z,4.65
2018-11-25T10:06:01.273Z,4.77
2018-11-25T10:07:01.174Z,4.72
2018-11-25T10:08:01.102Z,4.76
2018-11-25T10:09:01.018Z,4.87
2018-11-25T10:10:00.927Z,4.83
2018-11-25T10:11:00.847Z,4.85
2018-11-25T10:12:00.769Z,4.88
2018-11-25T10:13:00.685Z,4.83
2018-11-25T10:14:00.598Z,4.92
2018-11-25T10:15:00.529Z,4.87
2018-11-25T10:16:00.441Z,4.85
2018-11-25T10:17:01.206Z,4.91
2018-11-25T10:18:00.360Z,4.92
2018-11-25T10:19:00.196Z,4.95
2018-11-25T10:20:00.119Z,4.93
2018-11-25T10:21:00.034Z,4.91
2018-11-25T10:21:59.946Z,4.80
2018-11-25T10:22:59.865Z,4.93
2018-11-25T10:23:59.792Z,4.91
2018-11-25T10:24:59.701Z,4.93
2018-11-25T10:25:59.620Z,4.93
2018-11-25T10:26:59.538Z,5.00
2018-11-25T10:27:59.467Z,5.00
2018-11-25T10:28:59.375Z,4.98
2018-11-25T10:29:59.301Z,4.98
2018-11-25T10:30:59.209Z,4.98
2018-11-25T10:31:59.130Z,5.03
2018-11-25T10:32:59.062Z,4.99
2018-11-25T10:33:58.970Z,5.02
2018-11-25T10:34:58.884Z,5.03
2018-11-25T10:35:58.800Z,5.02
2018-11-25T10:36:58.736Z,5.06
2018-11-25T10:37:58.641Z,5.13
2018-11-25T10:38:58.566Z,5.13
2018-11-25T10:39:58.477Z,5.11
2018-11-25T10:40:58.397Z,5.18
2018-11-25T10:41:58.320Z,5.28
2018-11-25T10:42:58.235Z,5.24
2018-11-25T10:43:58.151Z,5.34
2018-11-25T10:44:58.071Z,5.29
2018-11-25T10:45:57.998Z,5.36
2018-11-25T10:46:57.907Z,5.32
2018-11-25T10:47:57.830Z,5.32
2018-11-25T10:48:57.744Z,5.32
2018-11-25T10:49:57.673Z,5.31
2018-11-25T10:50:57.589Z,5.29
2018-11-25T10:51:57.503Z,5.31
2018-11-25T10:52:57.419Z,5.31
2018-11-25T10:53:57.342Z,5.26
2018-11-25T10:54:57.256Z,5.34
2018-11-25T10:55:57.176Z,5.32
2018-11-25T10:56:57.093Z,5.36
2018-11-25T10:57:57.011Z,5.32
2018-11-25T10:58:56.927Z,5.44
2018-11-25T10:59:56.858Z,5.47
2018-11-25T11:00:56.764Z,5.42
2018-11-25T11:01:56.687Z,5.35
2018-11-25T11:02:56.602Z,5.49
2018-11-25T11:03:56.551Z,5.41
2018-11-25T11:04:56.440Z,5.49
2018-11-25T11:05:56.370Z,5.45
2018-11-25T11:06:56.276Z,5.44
2018-11-25T11:07:56.198Z,5.44
2018-11-25T11:08:56.126Z,5.42
2018-11-25T11:09:56.032Z,5.45
2018-11-25T11:10:55.948Z,5.56
2018-11-25T11:11:55.871Z,5.56
2018-11-25T11:12:55.799Z,5.59
2018-11-25T11:13:55.708Z,5.54
2018-11-25T11:14:55.635Z,5.54
2018-11-25T11:15:55.544Z,5.50
2018-11-25T11:16:55.460Z,5.53
2018-11-25T11:17:55.381Z,5.57
2018-11-25T11:18:55.309Z,5.60
2018-11-25T11:19:55.220Z,5.59
2018-11-25T11:20:55.146Z,5.63
2018-11-25T11:21:55.057Z,5.57
2018-11-25T11:22:54.991Z,5.65
2018-11-25T11:23:54.901Z,5.67
2018-11-25T11:24:54.820Z,5.54
2018-11-25T11:25:54.735Z,5.60
2018-11-25T11:26:54.664Z,5.60
2018-11-25T11:27:54.571Z,5.59
2018-11-25T11:28:54.486Z,5.57
2018-11-25T11:29:54.414Z,5.59
2018-11-25T11:30:54.365Z,5.62
2018-11-25T11:31:54.243Z,5.63
2018-11-25T11:32:54.163Z,5.65
2018-11-25T11:33:54.094Z,5.71
2018-11-25T11:34:54.004Z,5.70
2018-11-25T11:35:53.937Z,5.70
2018-11-25T11:36:53.841Z,5.74
2018-11-25T11:37:53.757Z,5.75
2018-11-25T11:38:53.675Z,5.72
2018-11-25T11:39:53.607Z,5.65
2018-11-25T11:40:53.524Z,5.71
2018-11-25T11:41:53.431Z,5.71
2018-11-25T11:42:53.352Z,5.85
2018-11-25T11:43:53.279Z,5.85
2018-11-25T11:44:53.191Z,5.86
2018-11-25T11:45:53.156Z,5.81
2018-11-25T11:46:53.029Z,5.88
2018-11-25T11:47:53.999Z,5.80
2018-11-25T11:48:52.863Z,5.80
2018-11-25T11:49:52.784Z,5.99
2018-11-25T11:50:52.704Z,5.97
2018-11-25T11:51:52.723Z,5.92
2018-11-25T11:52:52.542Z,5.95
2018-11-25T11:53:52.526Z,5.92
2018-11-25T11:54:52.382Z,5.95
2018-11-25T11:55:52.294Z,5.96
2018-11-25T11:56:52.247Z,5.95
2018-11-25T11:57:52.144Z,5.99
2018-11-25T11:58:52.053Z,5.96
2018-11-25T11:59:52.076Z,5.92
2018-11-25T12:00:51.896Z,5.92
2018-11-25T12:01:51.812Z,6.03
2018-11-25T12:02:51.729Z,6.04
2018-11-25T12:03:51.672Z,5.93
2018-11-25T12:04:51.567Z,5.95
2018-11-25T12:05:51.585Z,5.99
2018-11-25T12:06:51.405Z,6.06
2018-11-25T12:07:51.322Z,6.08
2018-11-25T12:08:51.242Z,6.08
2018-11-25T12:09:51.246Z,5.99
2018-11-25T12:10:51.107Z,6.04
2018-11-25T12:11:51.017Z,6.07
2018-11-25T12:12:51.020Z,6.14
2018-11-25T12:13:50.923Z,6.14
2018-11-25T12:14:50.760Z,6.21
2018-11-25T12:15:50.691Z,6.26
2018-11-25T12:16:50.598Z,6.17
2018-11-25T12:17:50.541Z,6.21
2018-11-25T12:18:50.439Z,6.17
2018-11-25T12:19:50.352Z,6.21
2018-11-25T12:20:50.360Z,6.14
2018-11-25T12:21:53.443Z,6.17
2018-11-25T12:22:50.111Z,6.17
2018-11-25T12:23:50.067Z,6.10
2018-11-25T12:24:49.950Z,6.10
2018-11-25T12:25:49.868Z,6.08
2018-11-25T12:26:49.789Z,6.10
2018-11-25T12:27:49.786Z,6.17
2018-11-25T12:28:49.627Z,6.21
2018-11-25T12:29:49.588Z,6.18
2018-11-25T12:30:49.477Z,6.14
2018-11-25T12:31:49.382Z,6.21
2018-11-25T12:32:49.410Z,6.24
2018-11-25T12:33:49.222Z,6.24
2018-11-25T12:34:49.140Z,6.27
2018-11-25T12:35:49.124Z,6.27
2018-11-25T12:36:48.984Z,6.24
2018-11-25T12:37:48.900Z,6.37
2018-11-25T12:38:48.826Z,6.33
2018-11-25T12:39:48.735Z,6.36
2018-11-25T12:40:48.671Z,6.37
2018-11-25T12:41:48.577Z,6.36
2018-11-25T12:42:48.555Z,6.36
2018-11-25T12:43:48.461Z,6.30
2018-11-25T12:44:48.337Z,6.44
2018-11-25T12:45:48.254Z,6.41
2018-11-25T12:46:48.172Z,6.41
2018-11-25T12:47:48.090Z,6.34
2018-11-25T12:48:48.086Z,6.44
2018-11-25T12:49:47.930Z,6.34
2018-11-25T12:50:47.893Z,6.44
2018-11-25T12:51:47.771Z,6.37
2018-11-25T12:52:47.685Z,6.41
2018-11-25T12:53:47.611Z,6.37
2018-11-25T12:54:47.609Z,6.41
2018-11-25T12:55:47.516Z,6.36
2018-11-25T12:56:51.793Z,6.37
2018-11-25T12:57:47.322Z,6.41
2018-11-25T12:58:47.235Z,6.47
2018-11-25T12:59:47.131Z,6.51
2018-11-25T13:00:47.140Z,6.51
2018-11-25T13:01:47.042Z,6.48
2018-11-25T13:02:46.880Z,6.50
2018-11-25T13:03:46.853Z,6.45
2018-11-25T13:04:46.755Z,6.39
2018-11-25T13:05:46.812Z,6.48
2018-11-25T13:06:46.673Z,6.54
2018-11-25T13:07:46.576Z,6.45
2018-11-25T13:08:46.397Z,6.55
2018-11-25T13:09:46.398Z,6.50
2018-11-25T13:10:46.245Z,6.63
2018-11-25T13:11:52.293Z,6.62
2018-11-25T13:12:46.198Z,6.62
2018-11-25T13:13:46.110Z,6.57
2018-11-25T13:14:45.924Z,6.66
2018-11-25T13:15:45.921Z,6.66
2018-11-25T13:16:45.877Z,6.66
2018-11-25T13:17:45.675Z,6.65